sensor_id;sensor_type;location;lat;lon;timestamp;temperature;humidity
7516;DHT22;3799;47.184;8.538;2024-03-23T01:18:26;10.10;99.90
7516;DHT22;3799;47.184;8.538;2024-03-23T01:20:58;10.10;99.90
7516;DHT22;3799;47.184;8.538;2024-03-23T01:23:25;10.00;99.90
7516;DHT22;3799;47.184;8.538;2024-03-23T01:25:54;10.00;99.90
7516;DHT22;3799;47.184;8.538;2024-03-23T01:28:28;10.00;99.90
7516;DHT22;3799;47.184;8.538;2024-03-23T01:31:04;10.00;99.90
7516;DHT22;3799;47.184;8.538;2024-03-23T01:33:40;9.90;99.90
7516;DHT22;3799;47.184;8.538;2024-03-23T01:36:09;9.90;99.90
7516;DHT22;3799;47.184;8.538;2024-03-23T01:38:42;9.90;99.90
7516;DHT22;3799;47.184;8.538;2024-03-23T01:41:13;9.80;99.90
7516;DHT22;3799;47.184;8.538;2024-03-23T01:43:55;9.80;99.90
7516;DHT22;3799;47.184;8.538;2024-03-23T01:46:39;9.80;99.90
7516;DHT22;3799;47.184;8.538;2024-03-23T01:49:18;9.80;99.90
7516;DHT22;3799;47.184;8.538;2024-03-23T01:54:41;10.00;99.90
7516;DHT22;3799;47.184;8.538;2024-03-23T01:57:07;9.90;99.90
7516;DHT22;3799;47.184;8.538;2024-03-23T01:59:37;10.00;99.90
7516;DHT22;3799;47.184;8.538;2024-03-23T02:02:03;10.00;99.90
7516;DHT22;3799;47.184;8.538;2024-03-23T02:04:32;10.00;99.90
7516;DHT22;3799;47.184;8.538;2024-03-23T02:07:02;10.10;99.90
7516;DHT22;3799;47.184;8.538;2024-03-23T02:09:34;10.10;99.90
7516;DHT22;3799;47.184;8.538;2024-03-23T02:12:07;10.20;99.90
7516;DHT22;3799;47.184;8.538;2024-03-23T02:14:36;10.20;99.90
7516;DHT22;3799;47.184;8.538;2024-03-23T02:17:26;10.20;99.90
7516;DHT22;3799;47.184;8.538;2024-03-23T02:20:08;10.20;99.90
7516;DHT22;3799;47.184;8.538;2024-03-23T02:22:40;10.30;99.90
7516;DHT22;3799;47.184;8.538;2024-03-23T02:25:13;10.30;99.90
7516;DHT22;3799;47.184;8.538;2024-03-23T02:27:42;10.30;99.90
7516;DHT22;3799;47.184;8.538;2024-03-23T02:30:09;10.30;99.90
7516;DHT22;3799;47.184;8.538;2024-03-23T02:32:35;10.30;99.90
7516;DHT22;3799;47.184;8.538;2024-03-23T02:35:03;10.20;99.90
7516;DHT22;3799;47.184;8.538;2024-03-23T02:37:47;10.20;99.90
7516;DHT22;3799;47.184;8.538;2024-03-23T02:40:19;10.20;99.90
7516;DHT22;3799;47.184;8.538;2024-03-23T02:43:05;10.20;99.90
7516;DHT22;3799;47.184;8.538;2024-03-23T02:45:34;10.20;99.90
7516;DHT22;3799;47.184;8.538;2024-03-23T02:48:08;10.10;99.90
7516;DHT22;3799;47.184;8.538;2024-03-23T02:50:35;10.10;99.90
7516;DHT22;3799;47.184;8.538;2024-03-23T02:53:21;10.10;99.90
7516;DHT22;3799;47.184;8.538;2024-03-23T02:55:47;10.10;99.90
7516;DHT22;3799;47.184;8.538;2024-03-23T02:58:14;10.10;99.90
7516;DHT22;3799;47.184;8.538;2024-03-23T03:00:51;10.10;99.90
7516;DHT22;3799;47.184;8.538;2024-03-23T03:03:20;10.10;99.90
7516;DHT22;3799;47.184;8.538;2024-03-23T03:05:46;10.10;99.90
7516;DHT22;3799;47.184;8.538;2024-03-23T03:08:22;10.10;99.90
7516;DHT22;3799;47.184;8.538;2024-03-23T03:10:56;10.10;99.90
7516;DHT22;3799;47.184;8.538;2024-03-23T03:13:32;10.00;99.90
7516;DHT22;3799;47.184;8.538;2024-03-23T03:16:02;10.00;99.90
7516;DHT22;3799;47.184;8.538;2024-03-23T03:18:31;10.00;99.90
7516;DHT22;3799;47.184;8.538;2024-03-23T03:21:06;10.00;99.90
7516;DHT22;3799;47.184;8.538;2024-03-23T03:23:37;10.00;99.90
7516;DHT22;3799;47.184;8.538;2024-03-23T03:26:08;10.00;99.90
7516;DHT22;3799;47.184;8.538;2024-03-23T03:28:43;10.00;99.90
7516;DHT22;3799;47.184;8.538;2024-03-23T03:31:15;10.00;99.90
7516;DHT22;3799;47.184;8.538;2024-03-23T03:34:00;9.90;99.90
7516;DHT22;3799;47.184;8.538;2024-03-23T03:36:26;9.80;99.90
7516;DHT22;3799;47.184;8.538;2024-03-23T03:39:02;9.80;99.90
7516;DHT22;3799;47.184;8.538;2024-03-23T03:41:37;9.80;99.90
7516;DHT22;3799;47.184;8.538;2024-03-23T03:44:03;9.80;99.90
7516;DHT22;3799;47.184;8.538;2024-03-23T03:46:40;9.80;99.90
7516;DHT22;3799;47.184;8.538;2024-03-23T03:49:06;9.70;99.90
7516;DHT22;3799;47.184;8.538;2024-03-23T03:51:37;9.80;99.90
7516;DHT22;3799;47.184;8.538;2024-03-23T03:54:03;9.50;99.90
7516;DHT22;3799;47.184;8.538;2024-03-23T03:56:32;9.80;99.90
7516;DHT22;3799;47.184;8.538;2024-03-23T03:59:31;9.70;99.90
7516;DHT22;3799;47.184;8.538;2024-03-23T04:02:00;9.80;99.90
7516;DHT22;3799;47.184;8.538;2024-03-23T04:04:32;9.80;99.90
7516;DHT22;3799;47.184;8.538;2024-03-23T04:07:11;9.90;99.90
7516;DHT22;3799;47.184;8.538;2024-03-23T04:09:40;9.90;99.90
7516;DHT22;3799;47.184;8.538;2024-03-23T04:12:17;9.90;99.90
7516;DHT22;3799;47.184;8.538;2024-03-23T04:14:57;10.00;99.90
7516;DHT22;3799;47.184;8.538;2024-03-23T04:17:29;10.00;99.90
7516;DHT22;3799;47.184;8.538;2024-03-23T04:20:25;10.00;99.90
7516;DHT22;3799;47.184;8.538;2024-03-23T04:22:56;10.00;99.90
7516;DHT22;3799;47.184;8.538;2024-03-23T04:25:25;10.00;99.90
7516;DHT22;3799;47.184;8.538;2024-03-23T04:28:06;10.00;99.90
7516;DHT22;3799;47.184;8.538;2024-03-23T04:30:42;10.00;99.90
7516;DHT22;3799;47.184;8.538;2024-03-23T04:33:11;10.00;99.90
7516;DHT22;3799;47.184;8.538;2024-03-23T04:35:50;10.00;99.90
7516;DHT22;3799;47.184;8.538;2024-03-23T04:38:18;10.00;99.90
7516;DHT22;3799;47.184;8.538;2024-03-23T04:41:14;10.00;99.90
7516;DHT22;3799;47.184;8.538;2024-03-23T04:43:53;9.90;99.90
7516;DHT22;3799;47.184;8.538;2024-03-23T04:46:23;9.90;99.90
7516;DHT22;3799;47.184;8.538;2024-03-23T04:48:51;9.90;99.90
7516;DHT22;3799;47.184;8.538;2024-03-23T04:51:23;9.80;99.90
7516;DHT22;3799;47.184;8.538;2024-03-23T04:53:55;9.80;99.90
7516;DHT22;3799;47.184;8.538;2024-03-23T04:56:26;9.70;99.90
7516;DHT22;3799;47.184;8.538;2024-03-23T04:58:53;10.00;99.90
7516;DHT22;3799;47.184;8.538;2024-03-23T05:01:20;10.10;99.90
7516;DHT22;3799;47.184;8.538;2024-03-23T05:03:48;9.90;99.90
7516;DHT22;3799;47.184;8.538;2024-03-23T05:06:23;9.90;99.90
7516;DHT22;3799;47.184;8.538;2024-03-23T05:08:52;9.90;99.90
7516;DHT22;3799;47.184;8.538;2024-03-23T05:11:31;9.90;99.90
7516;DHT22;3799;47.184;8.538;2024-03-23T05:14:14;10.00;99.90
7516;DHT22;3799;47.184;8.538;2024-03-23T05:16:43;10.00;99.90
7516;DHT22;3799;47.184;8.538;2024-03-23T05:19:09;10.00;99.90
7516;DHT22;3799;47.184;8.538;2024-03-23T05:21:35;10.10;99.90
7516;DHT22;3799;47.184;8.538;2024-03-23T05:24:29;10.10;99.90
7516;DHT22;3799;47.184;8.538;2024-03-23T05:26:59;10.10;99.90
7516;DHT22;3799;47.184;8.538;2024-03-23T05:29:51;10.20;99.90
7516;DHT22;3799;47.184;8.538;2024-03-23T05:32:24;10.20;99.90
7516;DHT22;3799;47.184;8.538;2024-03-23T05:34:58;10.20;99.90
7516;DHT22;3799;47.184;8.538;2024-03-23T05:37:40;10.30;99.90
7516;DHT22;3799;47.184;8.538;2024-03-23T05:40:30;10.30;99.90
7516;DHT22;3799;47.184;8.538;2024-03-23T05:43:15;10.40;99.90
7516;DHT22;3799;47.184;8.538;2024-03-23T05:45:45;10.40;99.90
7516;DHT22;3799;47.184;8.538;2024-03-23T05:48:11;10.40;99.90
7516;DHT22;3799;47.184;8.538;2024-03-23T05:50:37;10.40;99.90
7516;DHT22;3799;47.184;8.538;2024-03-23T05:53:11;10.40;99.90
7516;DHT22;3799;47.184;8.538;2024-03-23T05:55:46;10.40;99.90
7516;DHT22;3799;47.184;8.538;2024-03-23T05:58:38;10.50;99.90
7516;DHT22;3799;47.184;8.538;2024-03-23T06:01:04;10.50;99.90
7516;DHT22;3799;47.184;8.538;2024-03-23T06:03:39;10.60;99.90
7516;DHT22;3799;47.184;8.538;2024-03-23T06:06:05;10.60;99.90
7516;DHT22;3799;47.184;8.538;2024-03-23T06:08:42;10.60;99.90
7516;DHT22;3799;47.184;8.538;2024-03-23T06:11:17;10.60;99.90
7516;DHT22;3799;47.184;8.538;2024-03-23T06:13:43;10.70;99.90
7516;DHT22;3799;47.184;8.538;2024-03-23T06:16:15;10.70;99.90
7516;DHT22;3799;47.184;8.538;2024-03-23T06:18:44;10.70;99.90
7516;DHT22;3799;47.184;8.538;2024-03-23T06:21:15;10.80;99.90
7516;DHT22;3799;47.184;8.538;2024-03-23T06:23:42;10.70;99.90
7516;DHT22;3799;47.184;8.538;2024-03-23T06:26:08;10.70;99.90
7516;DHT22;3799;47.184;8.538;2024-03-23T06:28:34;10.70;99.90
7516;DHT22;3799;47.184;8.538;2024-03-23T06:31:01;10.70;99.90
7516;DHT22;3799;47.184;8.538;2024-03-23T06:33:28;10.80;99.90
7516;DHT22;3799;47.184;8.538;2024-03-23T06:35:54;10.80;99.90
7516;DHT22;3799;47.184;8.538;2024-03-23T06:38:21;10.80;99.90
7516;DHT22;3799;47.184;8.538;2024-03-23T06:40:49;10.90;99.90
7516;DHT22;3799;47.184;8.538;2024-03-23T06:43:29;10.90;99.90
7516;DHT22;3799;47.184;8.538;2024-03-23T06:46:01;10.90;99.90
7516;DHT22;3799;47.184;8.538;2024-03-23T06:48:30;11.00;99.90
7516;DHT22;3799;47.184;8.538;2024-03-23T06:50:57;11.00;99.90
7516;DHT22;3799;47.184;8.538;2024-03-23T06:53:26;11.00;99.90
7516;DHT22;3799;47.184;8.538;2024-03-23T06:55:53;11.00;99.90
7516;DHT22;3799;47.184;8.538;2024-03-23T06:58:25;11.00;99.90
7516;DHT22;3799;47.184;8.538;2024-03-23T07:00:53;11.10;99.90
7516;DHT22;3799;47.184;8.538;2024-03-23T07:03:23;11.20;99.90
7516;DHT22;3799;47.184;8.538;2024-03-23T07:05:58;11.20;99.90
7516;DHT22;3799;47.184;8.538;2024-03-23T07:08:27;11.20;99.90
7516;DHT22;3799;47.184;8.538;2024-03-23T07:10:53;11.20;99.90
7516;DHT22;3799;47.184;8.538;2024-03-23T07:13:19;11.20;99.90
7516;DHT22;3799;47.184;8.538;2024-03-23T07:15:51;11.20;99.90
7516;DHT22;3799;47.184;8.538;2024-03-23T07:18:30;11.20;99.90
7516;DHT22;3799;47.184;8.538;2024-03-23T07:20:59;11.20;99.90
7516;DHT22;3799;47.184;8.538;2024-03-23T07:23:25;11.10;99.90
7516;DHT22;3799;47.184;8.538;2024-03-23T07:26:04;11.10;99.90
7516;DHT22;3799;47.184;8.538;2024-03-23T07:28:31;11.10;99.90
7516;DHT22;3799;47.184;8.538;2024-03-23T07:31:09;11.10;99.90
7516;DHT22;3799;47.184;8.538;2024-03-23T07:33:45;11.10;99.90
7516;DHT22;3799;47.184;8.538;2024-03-23T07:36:12;11.10;99.90
7516;DHT22;3799;47.184;8.538;2024-03-23T07:38:42;11.20;99.90
7516;DHT22;3799;47.184;8.538;2024-03-23T07:41:16;11.20;99.90
7516;DHT22;3799;47.184;8.538;2024-03-23T07:43:50;11.20;99.90
7516;DHT22;3799;47.184;8.538;2024-03-23T07:46:17;11.20;99.90
7516;DHT22;3799;47.184;8.538;2024-03-23T07:48:49;11.20;99.90
7516;DHT22;3799;47.184;8.538;2024-03-23T07:51:23;11.20;99.90
7516;DHT22;3799;47.184;8.538;2024-03-23T07:53:50;11.30;99.90
7516;DHT22;3799;47.184;8.538;2024-03-23T07:56:28;11.30;99.90
7516;DHT22;3799;47.184;8.538;2024-03-23T07:58:57;11.30;99.90
7516;DHT22;3799;47.184;8.538;2024-03-23T08:01:33;11.30;99.90
7516;DHT22;3799;47.184;8.538;2024-03-23T08:04:06;11.30;99.90
7516;DHT22;3799;47.184;8.538;2024-03-23T08:06:36;11.30;99.90
7516;DHT22;3799;47.184;8.538;2024-03-23T08:09:11;11.40;99.90
7516;DHT22;3799;47.184;8.538;2024-03-23T08:11:39;11.40;99.90
7516;DHT22;3799;47.184;8.538;2024-03-23T08:14:08;11.40;99.90
7516;DHT22;3799;47.184;8.538;2024-03-23T08:16:34;11.40;99.90
7516;DHT22;3799;47.184;8.538;2024-03-23T08:19:00;11.40;99.90
7516;DHT22;3799;47.184;8.538;2024-03-23T08:21:31;11.40;99.90
7516;DHT22;3799;47.184;8.538;2024-03-23T08:23:57;11.30;99.90
7516;DHT22;3799;47.184;8.538;2024-03-23T08:26:23;11.20;99.90
7516;DHT22;3799;47.184;8.538;2024-03-23T08:28:52;11.00;99.90
7516;DHT22;3799;47.184;8.538;2024-03-23T08:31:17;10.70;99.90
7516;DHT22;3799;47.184;8.538;2024-03-23T08:33:44;10.40;99.90
7516;DHT22;3799;47.184;8.538;2024-03-23T08:36:10;10.20;99.90
7516;DHT22;3799;47.184;8.538;2024-03-23T08:38:40;10.00;99.90
7516;DHT22;3799;47.184;8.538;2024-03-23T08:41:10;9.80;99.90
7516;DHT22;3799;47.184;8.538;2024-03-23T08:43:41;9.60;99.90
7516;DHT22;3799;47.184;8.538;2024-03-23T08:46:15;9.50;99.90
7516;DHT22;3799;47.184;8.538;2024-03-23T08:48:43;9.30;99.90
7516;DHT22;3799;47.184;8.538;2024-03-23T08:51:13;9.10;99.90
7516;DHT22;3799;47.184;8.538;2024-03-23T08:53:40;9.00;99.90
7516;DHT22;3799;47.184;8.538;2024-03-23T08:56:07;8.80;99.90
7516;DHT22;3799;47.184;8.538;2024-03-23T08:58:37;8.70;99.90
7516;DHT22;3799;47.184;8.538;2024-03-23T09:03:34;8.70;99.90
7516;DHT22;3799;47.184;8.538;2024-03-23T09:06:06;8.70;99.90
7516;DHT22;3799;47.184;8.538;2024-03-23T09:08:33;8.60;99.90
7516;DHT22;3799;47.184;8.538;2024-03-23T09:11:04;8.70;99.90
7516;DHT22;3799;47.184;8.538;2024-03-23T09:13:33;8.60;99.90
7516;DHT22;3799;47.184;8.538;2024-03-23T09:15:59;8.60;99.90
7516;DHT22;3799;47.184;8.538;2024-03-23T09:18:25;8.70;99.90
7516;DHT22;3799;47.184;8.538;2024-03-23T09:20:52;8.60;99.90
7516;DHT22;3799;47.184;8.538;2024-03-23T09:23:20;8.70;99.90
7516;DHT22;3799;47.184;8.538;2024-03-23T09:25:49;8.70;99.90
7516;DHT22;3799;47.184;8.538;2024-03-23T09:28:15;8.60;99.90
7516;DHT22;3799;47.184;8.538;2024-03-23T09:30:41;8.80;99.90
7516;DHT22;3799;47.184;8.538;2024-03-23T09:33:11;8.80;99.90
7516;DHT22;3799;47.184;8.538;2024-03-23T09:35:41;8.80;99.90
7516;DHT22;3799;47.184;8.538;2024-03-23T09:38:08;8.90;99.90
7516;DHT22;3799;47.184;8.538;2024-03-23T09:40:41;8.70;99.90
7516;DHT22;3799;47.184;8.538;2024-03-23T09:43:10;8.70;99.90
7516;DHT22;3799;47.184;8.538;2024-03-23T09:45:40;8.80;99.90
7516;DHT22;3799;47.184;8.538;2024-03-23T09:48:10;8.80;99.90
7516;DHT22;3799;47.184;8.538;2024-03-23T09:50:40;8.70;99.90
7516;DHT22;3799;47.184;8.538;2024-03-23T09:53:07;8.90;99.90
7516;DHT22;3799;47.184;8.538;2024-03-23T09:55:34;8.90;99.90
7516;DHT22;3799;47.184;8.538;2024-03-23T09:58:02;9.00;99.90
7516;DHT22;3799;47.184;8.538;2024-03-23T10:00:28;8.80;99.90
7516;DHT22;3799;47.184;8.538;2024-03-23T10:03:01;8.60;99.90
7516;DHT22;3799;47.184;8.538;2024-03-23T10:05:30;8.80;99.90
7516;DHT22;3799;47.184;8.538;2024-03-23T10:10:44;8.80;99.90
7516;DHT22;3799;47.184;8.538;2024-03-23T10:13:11;8.70;99.90
7516;DHT22;3799;47.184;8.538;2024-03-23T10:15:38;8.90;99.90
7516;DHT22;3799;47.184;8.538;2024-03-23T10:18:20;8.60;99.90
7516;DHT22;3799;47.184;8.538;2024-03-23T10:23:41;8.90;99.90
7516;DHT22;3799;47.184;8.538;2024-03-23T10:26:16;9.00;99.90
7516;DHT22;3799;47.184;8.538;2024-03-23T10:29:00;9.00;99.90
7516;DHT22;3799;47.184;8.538;2024-03-23T10:31:33;8.70;99.90
7516;DHT22;3799;47.184;8.538;2024-03-23T10:34:03;8.70;99.90
7516;DHT22;3799;47.184;8.538;2024-03-23T10:36:30;8.70;99.90
7516;DHT22;3799;47.184;8.538;2024-03-23T10:38:56;8.80;99.90
7516;DHT22;3799;47.184;8.538;2024-03-23T10:41:29;8.60;99.90
7516;DHT22;3799;47.184;8.538;2024-03-23T10:43:58;8.90;99.90
7516;DHT22;3799;47.184;8.538;2024-03-23T10:46:25;8.80;99.90
7516;DHT22;3799;47.184;8.538;2024-03-23T10:48:51;8.90;99.90
7516;DHT22;3799;47.184;8.538;2024-03-23T10:51:17;8.80;99.90
7516;DHT22;3799;47.184;8.538;2024-03-23T10:53:45;8.90;99.90
7516;DHT22;3799;47.184;8.538;2024-03-23T10:56:12;8.90;99.90
7516;DHT22;3799;47.184;8.538;2024-03-23T10:58:43;9.00;99.90
7516;DHT22;3799;47.184;8.538;2024-03-23T11:01:13;9.10;99.90
7516;DHT22;3799;47.184;8.538;2024-03-23T11:03:45;9.00;99.80
7516;DHT22;3799;47.184;8.538;2024-03-23T11:06:34;9.10;99.90
7516;DHT22;3799;47.184;8.538;2024-03-23T11:08:57;9.10;99.90
7516;DHT22;3799;47.184;8.538;2024-03-23T11:11:24;9.10;99.90
7516;DHT22;3799;47.184;8.538;2024-03-23T11:13:52;9.10;99.90
7516;DHT22;3799;47.184;8.538;2024-03-23T11:16:29;9.10;99.90
7516;DHT22;3799;47.184;8.538;2024-03-23T11:22:02;9.20;99.90
7516;DHT22;3799;47.184;8.538;2024-03-23T11:24:32;9.10;99.90
7516;DHT22;3799;47.184;8.538;2024-03-23T11:26:58;9.10;99.90
7516;DHT22;3799;47.184;8.538;2024-03-23T11:29:30;9.10;99.90
7516;DHT22;3799;47.184;8.538;2024-03-23T11:31:56;9.30;99.90
7516;DHT22;3799;47.184;8.538;2024-03-23T11:35:00;9.20;99.90
7516;DHT22;3799;47.184;8.538;2024-03-23T11:37:26;9.20;99.90
7516;DHT22;3799;47.184;8.538;2024-03-23T11:39:52;9.40;99.90
7516;DHT22;3799;47.184;8.538;2024-03-23T11:42:27;9.00;99.90
7516;DHT22;3799;47.184;8.538;2024-03-23T11:44:53;9.30;99.90
7516;DHT22;3799;47.184;8.538;2024-03-23T11:47:20;9.40;99.90
7516;DHT22;3799;47.184;8.538;2024-03-23T11:49:48;9.70;99.90
7516;DHT22;3799;47.184;8.538;2024-03-23T11:52:16;9.50;99.90
7516;DHT22;3799;47.184;8.538;2024-03-23T11:54:42;9.50;99.90
7516;DHT22;3799;47.184;8.538;2024-03-23T11:57:08;9.20;99.90
7516;DHT22;3799;47.184;8.538;2024-03-23T11:59:35;9.60;99.90
7516;DHT22;3799;47.184;8.538;2024-03-23T12:04:33;9.60;99.90
7516;DHT22;3799;47.184;8.538;2024-03-23T12:09:40;9.80;99.90
7516;DHT22;3799;47.184;8.538;2024-03-23T12:12:17;9.90;99.40
7516;DHT22;3799;47.184;8.538;2024-03-23T12:15:06;10.10;92.90
7516;DHT22;3799;47.184;8.538;2024-03-23T12:17:32;10.30;91.00
7516;DHT22;3799;47.184;8.538;2024-03-23T12:19:59;10.40;91.30
7516;DHT22;3799;47.184;8.538;2024-03-23T12:22:25;10.60;82.90
7516;DHT22;3799;47.184;8.538;2024-03-23T12:24:51;10.70;77.70
7516;DHT22;3799;47.184;8.538;2024-03-23T12:27:17;10.70;75.00
7516;DHT22;3799;47.184;8.538;2024-03-23T12:29:43;10.70;76.70
7516;DHT22;3799;47.184;8.538;2024-03-23T12:32:13;10.70;77.80
7516;DHT22;3799;47.184;8.538;2024-03-23T12:34:39;10.70;75.90
7516;DHT22;3799;47.184;8.538;2024-03-23T12:37:05;10.70;78.10
7516;DHT22;3799;47.184;8.538;2024-03-23T12:39:35;10.60;80.30
7516;DHT22;3799;47.184;8.538;2024-03-23T12:42:03;10.60;76.30
7516;DHT22;3799;47.184;8.538;2024-03-23T12:44:30;10.50;76.70
7516;DHT22;3799;47.184;8.538;2024-03-23T12:46:56;10.50;79.00
7516;DHT22;3799;47.184;8.538;2024-03-23T12:49:22;10.50;76.60
7516;DHT22;3799;47.184;8.538;2024-03-23T12:51:54;10.50;77.70
7516;DHT22;3799;47.184;8.538;2024-03-23T12:54:21;10.50;76.10
7516;DHT22;3799;47.184;8.538;2024-03-23T12:56:49;10.50;76.90
7516;DHT22;3799;47.184;8.538;2024-03-23T12:59:16;10.60;80.60
7516;DHT22;3799;47.184;8.538;2024-03-23T13:01:42;10.70;82.40
7516;DHT22;3799;47.184;8.538;2024-03-23T13:04:09;10.80;71.30
7516;DHT22;3799;47.184;8.538;2024-03-23T13:06:35;10.90;64.50
7516;DHT22;3799;47.184;8.538;2024-03-23T13:09:02;10.90;64.30
7516;DHT22;3799;47.184;8.538;2024-03-23T13:11:29;10.90;56.90
7516;DHT22;3799;47.184;8.538;2024-03-23T13:13:55;11.00;56.60
7516;DHT22;3799;47.184;8.538;2024-03-23T13:16:22;11.00;56.40
7516;DHT22;3799;47.184;8.538;2024-03-23T13:18:48;11.10;56.00
7516;DHT22;3799;47.184;8.538;2024-03-23T13:21:14;11.20;54.60
7516;DHT22;3799;47.184;8.538;2024-03-23T13:23:42;11.30;53.00
7516;DHT22;3799;47.184;8.538;2024-03-23T13:26:11;11.30;52.40
7516;DHT22;3799;47.184;8.538;2024-03-23T13:28:37;11.40;52.30
7516;DHT22;3799;47.184;8.538;2024-03-23T13:31:03;11.40;51.50
7516;DHT22;3799;47.184;8.538;2024-03-23T13:33:30;11.50;51.80
7516;DHT22;3799;47.184;8.538;2024-03-23T13:35:58;11.50;51.40
7516;DHT22;3799;47.184;8.538;2024-03-23T13:38:25;11.50;51.20
7516;DHT22;3799;47.184;8.538;2024-03-23T13:40:59;11.60;50.00
7516;DHT22;3799;47.184;8.538;2024-03-23T13:43:26;11.50;49.10
7516;DHT22;3799;47.184;8.538;2024-03-23T13:45:57;11.50;48.80
7516;DHT22;3799;47.184;8.538;2024-03-23T13:48:25;11.50;48.50
7516;DHT22;3799;47.184;8.538;2024-03-23T13:51:01;11.50;47.80
7516;DHT22;3799;47.184;8.538;2024-03-23T13:53:29;11.50;48.50
7516;DHT22;3799;47.184;8.538;2024-03-23T13:55:55;11.60;46.70
7516;DHT22;3799;47.184;8.538;2024-03-23T13:58:22;11.60;45.60
7516;DHT22;3799;47.184;8.538;2024-03-23T14:00:51;11.70;44.60
7516;DHT22;3799;47.184;8.538;2024-03-23T14:03:17;11.90;43.90
7516;DHT22;3799;47.184;8.538;2024-03-23T14:05:46;12.20;41.50
7516;DHT22;3799;47.184;8.538;2024-03-23T14:08:15;12.80;41.90
7516;DHT22;3799;47.184;8.538;2024-03-23T14:10:42;13.40;41.50
7516;DHT22;3799;47.184;8.538;2024-03-23T14:13:08;13.90;40.80
7516;DHT22;3799;47.184;8.538;2024-03-23T14:15:35;14.00;40.30
7516;DHT22;3799;47.184;8.538;2024-03-23T14:18:05;14.10;40.20
7516;DHT22;3799;47.184;8.538;2024-03-23T14:20:31;14.30;41.70
7516;DHT22;3799;47.184;8.538;2024-03-23T14:22:57;14.70;41.90
7516;DHT22;3799;47.184;8.538;2024-03-23T14:25:23;15.20;41.20
7516;DHT22;3799;47.184;8.538;2024-03-23T14:27:53;15.80;41.10
7516;DHT22;3799;47.184;8.538;2024-03-23T14:30:19;16.20;40.20
7516;DHT22;3799;47.184;8.538;2024-03-23T14:32:48;16.50;39.70
7516;DHT22;3799;47.184;8.538;2024-03-23T14:35:14;16.80;39.40
7516;DHT22;3799;47.184;8.538;2024-03-23T14:37:40;17.00;38.50
7516;DHT22;3799;47.184;8.538;2024-03-23T14:40:08;17.00;37.60
7516;DHT22;3799;47.184;8.538;2024-03-23T14:42:34;17.00;37.30
7516;DHT22;3799;47.184;8.538;2024-03-23T14:45:00;16.90;37.10
7516;DHT22;3799;47.184;8.538;2024-03-23T14:47:26;16.80;37.00
7516;DHT22;3799;47.184;8.538;2024-03-23T14:49:52;16.70;37.40
7516;DHT22;3799;47.184;8.538;2024-03-23T14:52:19;16.40;37.70
7516;DHT22;3799;47.184;8.538;2024-03-23T14:54:46;16.10;37.90
7516;DHT22;3799;47.184;8.538;2024-03-23T14:57:15;16.00;38.40
7516;DHT22;3799;47.184;8.538;2024-03-23T14:59:41;16.30;38.80
7516;DHT22;3799;47.184;8.538;2024-03-23T15:02:07;16.70;38.50
7516;DHT22;3799;47.184;8.538;2024-03-23T15:04:33;16.60;37.70
7516;DHT22;3799;47.184;8.538;2024-03-23T15:07:00;16.40;37.70
7516;DHT22;3799;47.184;8.538;2024-03-23T15:09:26;16.20;37.40
7516;DHT22;3799;47.184;8.538;2024-03-23T15:11:52;16.30;37.90
7516;DHT22;3799;47.184;8.538;2024-03-23T15:14:20;16.60;37.50
7516;DHT22;3799;47.184;8.538;2024-03-23T15:16:47;16.50;37.50
7516;DHT22;3799;47.184;8.538;2024-03-23T15:19:15;16.50;37.80
7516;DHT22;3799;47.184;8.538;2024-03-23T15:21:43;16.40;37.20
7516;DHT22;3799;47.184;8.538;2024-03-23T15:24:10;15.90;37.70
7516;DHT22;3799;47.184;8.538;2024-03-23T15:26:37;15.50;39.30
7516;DHT22;3799;47.184;8.538;2024-03-23T15:29:03;15.20;39.70
7516;DHT22;3799;47.184;8.538;2024-03-23T15:31:38;14.90;40.60
7516;DHT22;3799;47.184;8.538;2024-03-23T15:34:04;14.50;40.60
7516;DHT22;3799;47.184;8.538;2024-03-23T15:36:31;14.10;41.10
7516;DHT22;3799;47.184;8.538;2024-03-23T15:38:57;13.80;41.50
7516;DHT22;3799;47.184;8.538;2024-03-23T15:41:23;13.50;42.20
7516;DHT22;3799;47.184;8.538;2024-03-23T15:43:51;13.30;42.50
7516;DHT22;3799;47.184;8.538;2024-03-23T15:46:17;13.00;42.90
7516;DHT22;3799;47.184;8.538;2024-03-23T15:48:45;12.90;42.70
7516;DHT22;3799;47.184;8.538;2024-03-23T15:51:13;12.70;43.00
7516;DHT22;3799;47.184;8.538;2024-03-23T15:53:42;12.60;43.50
7516;DHT22;3799;47.184;8.538;2024-03-23T15:56:08;12.60;44.10
7516;DHT22;3799;47.184;8.538;2024-03-23T15:58:34;12.60;44.20
7516;DHT22;3799;47.184;8.538;2024-03-23T16:01:06;12.50;43.70
7516;DHT22;3799;47.184;8.538;2024-03-23T16:03:35;12.40;44.10
7516;DHT22;3799;47.184;8.538;2024-03-23T16:06:11;12.30;44.30
7516;DHT22;3799;47.184;8.538;2024-03-23T16:08:37;12.30;44.20
7516;DHT22;3799;47.184;8.538;2024-03-23T16:11:05;12.40;43.70
7516;DHT22;3799;47.184;8.538;2024-03-23T16:13:34;12.40;45.10
7516;DHT22;3799;47.184;8.538;2024-03-23T16:16:04;12.60;45.00
7516;DHT22;3799;47.184;8.538;2024-03-23T16:18:34;12.60;42.30
7516;DHT22;3799;47.184;8.538;2024-03-23T16:21:05;12.40;41.80
7516;DHT22;3799;47.184;8.538;2024-03-23T16:23:35;12.20;41.50
7516;DHT22;3799;47.184;8.538;2024-03-23T16:26:03;12.00;42.00
7516;DHT22;3799;47.184;8.538;2024-03-23T16:28:32;11.90;41.90
7516;DHT22;3799;47.184;8.538;2024-03-23T16:31:03;11.80;41.80
7516;DHT22;3799;47.184;8.538;2024-03-23T16:33:30;11.60;41.70
7516;DHT22;3799;47.184;8.538;2024-03-23T16:36:02;11.50;41.70
7516;DHT22;3799;47.184;8.538;2024-03-23T16:38:31;11.40;41.60
7516;DHT22;3799;47.184;8.538;2024-03-23T16:41:03;11.30;42.10
7516;DHT22;3799;47.184;8.538;2024-03-23T16:43:34;11.30;41.90
7516;DHT22;3799;47.184;8.538;2024-03-23T16:46:02;11.30;41.70
7516;DHT22;3799;47.184;8.538;2024-03-23T16:48:30;11.20;41.80
7516;DHT22;3799;47.184;8.538;2024-03-23T16:50:58;11.20;43.70
7516;DHT22;3799;47.184;8.538;2024-03-23T16:53:24;11.20;42.80
7516;DHT22;3799;47.184;8.538;2024-03-23T16:55:55;11.20;42.30
7516;DHT22;3799;47.184;8.538;2024-03-23T16:58:27;11.20;42.40
7516;DHT22;3799;47.184;8.538;2024-03-23T17:00:54;11.10;41.70
7516;DHT22;3799;47.184;8.538;2024-03-23T17:03:25;11.10;42.10
7516;DHT22;3799;47.184;8.538;2024-03-23T17:05:51;11.00;42.00
7516;DHT22;3799;47.184;8.538;2024-03-23T17:08:17;10.90;42.20
7516;DHT22;3799;47.184;8.538;2024-03-23T17:10:43;10.80;42.80
7516;DHT22;3799;47.184;8.538;2024-03-23T17:13:09;10.70;42.90
7516;DHT22;3799;47.184;8.538;2024-03-23T17:15:43;10.70;42.90
7516;DHT22;3799;47.184;8.538;2024-03-23T17:18:09;10.50;43.30
7516;DHT22;3799;47.184;8.538;2024-03-23T17:20:35;10.50;43.60
7516;DHT22;3799;47.184;8.538;2024-03-23T17:23:02;10.40;43.80
7516;DHT22;3799;47.184;8.538;2024-03-23T17:25:28;10.30;43.80
7516;DHT22;3799;47.184;8.538;2024-03-23T17:27:54;10.30;44.10
7516;DHT22;3799;47.184;8.538;2024-03-23T17:30:20;10.30;44.50
7516;DHT22;3799;47.184;8.538;2024-03-23T17:32:46;10.20;45.20
7516;DHT22;3799;47.184;8.538;2024-03-23T17:35:13;10.20;45.60
7516;DHT22;3799;47.184;8.538;2024-03-23T17:37:41;10.10;45.80
7516;DHT22;3799;47.184;8.538;2024-03-23T17:40:08;10.10;45.90
7516;DHT22;3799;47.184;8.538;2024-03-23T17:42:35;10.00;45.80
7516;DHT22;3799;47.184;8.538;2024-03-23T17:45:03;10.00;45.70
7516;DHT22;3799;47.184;8.538;2024-03-23T17:47:40;9.90;46.60
7516;DHT22;3799;47.184;8.538;2024-03-23T17:50:07;9.90;46.90
7516;DHT22;3799;47.184;8.538;2024-03-23T17:52:34;9.90;47.00
7516;DHT22;3799;47.184;8.538;2024-03-23T17:55:00;9.90;47.10
7516;DHT22;3799;47.184;8.538;2024-03-23T17:57:27;9.90;46.60
7516;DHT22;3799;47.184;8.538;2024-03-23T17:59:54;9.90;45.90
7516;DHT22;3799;47.184;8.538;2024-03-23T18:02:20;9.90;46.40